Time;durP1;ratioP1;P1;durP2;ratioP2;P2;SDS_P1;SDS_P2;PMS_P1;PMS_P2;Temp;Humidity;BMP_temperature;BMP_pressure;BME280_temperature;BME280_humidity;BME280_pressure;Samples;Min_cycle;Max_cycle;Signal;HPM_P1;HPM_P2
2022/07/11 00:00:07;;;;;;;9.68;5.60;;;;;;;15.75;84.80;102342.78;6125568;23;20036;-79
2022/07/11 00:02:34;;;;;;;10.38;5.97;;;;;;;15.64;84.90;102336.44;6149416;23;20008;-78
2022/07/11 00:05:01;;;;;;;9.00;5.78;;;;;;;15.66;85.20;102331.88;6119122;23;20021;-74
2022/07/11 00:07:28;;;;;;;9.35;5.57;;;;;;;15.64;85.29;102333.78;6121156;23;20006;-78
2022/07/11 00:09:53;;;;;;;11.15;6.05;;;;;;;15.65;85.31;102338.13;6121841;23;20005;-78
2022/07/11 00:12:21;;;;;;;8.57;5.43;;;;;;;15.63;85.30;102339.22;6120606;23;20081;-74
2022/07/11 00:14:47;;;;;;;8.80;5.63;;;;;;;15.50;85.91;102328.56;6119539;23;20211;-74
2022/07/11 00:17:12;;;;;;;10.30;5.50;;;;;;;15.45;85.99;102336.00;6121803;23;20002;-74
2022/07/11 00:19:40;;;;;;;11.05;5.72;;;;;;;15.48;86.35;102327.84;6119897;23;20053;-77
2022/07/11 00:22:06;;;;;;;10.25;5.68;;;;;;;15.43;86.30;102332.63;6120038;23;20392;-74
2022/07/11 00:24:32;;;;;;;10.13;5.88;;;;;;;15.38;86.76;102324.13;6120133;23;20134;-75
2022/07/11 00:26:58;;;;;;;10.63;6.20;;;;;;;15.35;87.02;102314.59;6143464;23;20069;-78
2022/07/11 00:29:23;;;;;;;7.80;5.85;;;;;;;15.38;87.09;102318.84;6120369;23;20006;-74
2022/07/11 00:31:49;;;;;;;7.53;6.05;;;;;;;15.34;86.94;102315.56;6121106;23;20061;-74
2022/07/11 00:34:18;;;;;;;9.77;6.10;;;;;;;15.30;87.40;102307.94;6122164;23;20028;-78
2022/07/11 00:36:44;;;;;;;9.88;6.80;;;;;;;15.28;87.46;102318.66;6120883;23;20080;-74
2022/07/11 00:39:09;;;;;;;8.85;6.50;;;;;;;15.29;87.51;102308.88;6122434;23;20036;-74
2022/07/11 00:41:35;;;;;;;8.27;6.28;;;;;;;15.23;87.85;102317.28;6119285;23;20680;-78
2022/07/11 00:44:02;;;;;;;13.00;7.15;;;;;;;15.17;87.96;102309.72;6122653;23;20106;-78
2022/07/11 00:46:29;;;;;;;9.43;6.63;;;;;;;15.11;88.21;102318.09;6122080;23;20505;-74
2022/07/11 00:48:56;;;;;;;11.30;6.47;;;;;;;15.08;88.31;102321.81;6122464;23;20006;-74
2022/07/11 00:51:22;;;;;;;9.98;6.88;;;;;;;15.03;88.52;102314.19;6120161;23;20377;-75
2022/07/11 00:53:51;;;;;;;9.02;6.75;;;;;;;15.03;88.77;102313.34;6122448;23;20006;-74
2022/07/11 00:56:19;;;;;;;11.40;6.30;;;;;;;15.07;88.25;102314.81;6121572;23;20436;-78
2022/07/11 00:58:47;;;;;;;10.38;7.43;;;;;;;14.99;88.39;102307.41;6123456;23;20002;-79
2022/07/11 01:01:12;;;;;;;10.32;7.47;;;;;;;14.96;89.17;102306.78;6122328;23;20006;-78
2022/07/11 01:03:39;;;;;;;10.93;7.25;;;;;;;14.94;89.47;102303.38;6122446;23;20041;-79
2022/07/11 01:06:08;;;;;;;12.93;7.13;;;;;;;14.90;89.82;102305.41;6121665;23;20476;-79
2022/07/11 01:08:35;;;;;;;9.20;6.75;;;;;;;14.88;89.24;102309.97;6121389;23;20118;-79
2022/07/11 01:11:02;;;;;;;8.60;6.55;;;;;;;14.87;89.18;102310.06;6123271;23;20009;-75
2022/07/11 01:13:32;;;;;;;8.23;6.45;;;;;;;14.84;89.46;102313.78;6121692;23;20009;-78
2022/07/11 01:16:12;;;;;;;10.10;7.28;;;;;;;14.84;89.69;102307.63;6096286;23;20061;-78
2022/07/11 01:18:39;;;;;;;9.52;7.45;;;;;;;14.78;90.01;102306.22;6122403;23;20006;-74
2022/07/11 01:21:19;;;;;;;11.30;7.57;;;;;;;14.77;90.42;102304.53;6096665;23;20052;-77
2022/07/11 01:23:47;;;;;;;10.15;7.40;;;;;;;14.70;90.19;102301.44;6095495;23;20002;-74
2022/07/11 01:26:14;;;;;;;12.80;7.38;;;;;;;14.66;90.44;102304.41;6122855;23;20018;-78
2022/07/11 01:28:39;;;;;;;10.40;7.45;;;;;;;14.72;90.65;102304.84;6095735;23;20032;-77
2022/07/11 01:31:05;;;;;;;10.93;7.65;;;;;;;14.65;90.96;102297.41;6121354;23;20084;-74
2022/07/11 01:33:34;;;;;;;14.50;7.63;;;;;;;14.68;91.01;102306.00;6121522;23;20344;-77
2022/07/11 01:36:01;;;;;;;10.65;7.40;;;;;;;14.69;90.88;102296.25;6121925;23;20013;-79
2022/07/11 01:38:26;;;;;;;9.50;7.38;;;;;;;14.72;90.71;102293.41;6095469;23;20010;-78
2022/07/11 01:40:52;;;;;;;11.85;8.27;;;;;;;14.63;91.11;102300.16;6096517;23;20443;-79
2022/07/11 01:43:17;;;;;;;10.43;7.57;;;;;;;14.61;91.17;102293.28;6119976;23;20017;-78
2022/07/11 01:45:43;;;;;;;10.77;7.75;;;;;;;14.62;91.26;102294.97;6122427;23;20060;-79
2022/07/11 01:48:08;;;;;;;10.65;7.90;;;;;;;14.57;91.79;102294.44;6122527;23;20002;-78
2022/07/11 01:50:33;;;;;;;12.82;8.30;;;;;;;14.54;91.98;102305.25;6094688;23;20041;-74
2022/07/11 01:52:59;;;;;;;15.35;8.25;;;;;;;14.51;92.43;102305.47;6122438;23;20451;-75
2022/07/11 01:55:24;;;;;;;12.15;8.27;;;;;;;14.47;92.74;102312.75;6121475;23;20002;-78
2022/07/11 01:57:52;;;;;;;10.68;8.07;;;;;;;14.47;92.85;102306.63;6121249;23;20005;-78
2022/07/11 02:00:18;;;;;;;13.60;8.73;;;;;;;14.42;92.80;102312.19;6121101;23;20074;-78
2022/07/11 02:02:43;;;;;;;10.75;7.90;;;;;;;14.45;91.83;102311.19;6123684;23;20080;-78
2022/07/11 02:05:08;;;;;;;11.38;8.32;;;;;;;14.38;92.34;102306.22;6139162;23;20092;-78
2022/07/11 02:10:19;;;;;;;13.43;8.57;;;;;;;14.36;92.92;102310.78;6151232;23;20024;-76
2022/07/11 02:12:48;;;;;;;11.32;8.73;;;;;;;14.33;93.12;102313.63;6151739;23;20441;-78
2022/07/11 02:15:13;;;;;;;11.35;8.10;;;;;;;14.30;92.92;102303.25;6152151;23;20108;-77
2022/07/11 02:17:39;;;;;;;13.38;8.05;;;;;;;14.32;92.54;102303.13;6152262;23;20029;-76
2022/07/11 02:20:05;;;;;;;10.68;8.30;;;;;;;14.26;92.93;102303.56;6151816;23;20723;-79
2022/07/11 02:22:34;;;;;;;13.57;8.65;;;;;;;14.20;93.21;102301.31;6151026;23;20435;-74
2022/07/11 02:24:59;;;;;;;12.32;8.85;;;;;;;14.20;93.22;102291.56;6151636;23;20076;-76
2022/07/11 02:27:25;;;;;;;11.80;8.98;;;;;;;14.19;93.70;102304.91;6124643;23;20013;-79
2022/07/11 02:29:50;;;;;;;10.02;8.48;;;;;;;14.25;93.23;102299.22;6151034;23;20006;-79
2022/07/11 02:32:19;;;;;;;11.88;9.13;;;;;;;14.27;93.14;102290.22;6150371;23;20432;-79
2022/07/11 02:34:44;;;;;;;15.32;8.88;;;;;;;14.19;93.22;102304.91;6151540;23;20010;-78
2022/07/11 02:37:09;;;;;;;11.07;8.45;;;;;;;14.21;93.47;102300.38;6125610;23;20416;-78
2022/07/11 02:39:35;;;;;;;13.38;9.18;;;;;;;14.22;93.52;102302.06;6149507;23;20009;-75
2022/07/11 02:42:00;;;;;;;12.90;8.93;;;;;;;14.27;93.17;102302.59;6150474;23;20025;-75
2022/07/11 02:44:25;;;;;;;11.10;8.88;;;;;;;14.23;93.44;102299.31;6149185;23;20012;-79
2022/07/11 02:46:50;;;;;;;11.60;9.65;;;;;;;14.25;94.21;102300.06;6150100;23;20085;-75
2022/07/11 02:49:17;;;;;;;11.82;9.70;;;;;;;14.23;94.30;102309.06;6150062;23;20424;-75
2022/07/11 02:51:42;;;;;;;13.55;9.05;;;;;;;14.20;94.76;102304.81;6150894;23;20063;-75
2022/07/11 02:54:09;;;;;;;11.77;9.50;;;;;;;14.23;95.23;102304.59;6150078;23;20005;-75
2022/07/11 02:56:35;;;;;;;13.05;9.32;;;;;;;14.29;95.00;102301.53;6123742;23;20452;-74
2022/07/11 02:59:01;;;;;;;11.35;9.20;;;;;;;14.30;94.98;102297.94;6151270;23;20005;-78
2022/07/11 03:01:27;;;;;;;12.10;9.18;;;;;;;14.28;95.27;102299.00;6123229;23;20009;-78
2022/07/11 03:03:53;;;;;;;14.43;9.63;;;;;;;14.28;95.11;102304.28;6150879;23;20419;-77
2022/07/11 03:06:18;;;;;;;13.05;10.35;;;;;;;14.25;95.54;102292.13;6149991;23;20332;-79
2022/07/11 03:08:43;;;;;;;13.98;10.48;;;;;;;14.25;95.90;102297.41;6124510;23;20006;-79
2022/07/11 03:11:10;;;;;;;16.35;10.63;;;;;;;14.25;96.15;102304.50;6151080;23;20065;-79
2022/07/11 03:13:35;;;;;;;15.02;10.75;;;;;;;14.30;95.62;102302.41;6123860;23;20573;-78
2022/07/11 03:16:03;;;;;;;16.02;10.45;;;;;;;14.27;96.43;102303.44;6150330;23;19998;-79
2022/07/11 03:18:28;;;;;;;13.60;10.50;;;;;;;14.33;95.93;102302.19;6149960;23;20012;-79
2022/07/11 03:20:53;;;;;;;13.38;10.80;;;;;;;14.32;96.22;102306.63;6150820;23;20080;-78
2022/07/11 03:23:19;;;;;;;17.85;11.70;;;;;;;14.29;96.54;102306.84;6123682;23;20005;-78
2022/07/11 03:25:44;;;;;;;18.55;11.93;;;;;;;14.32;97.00;102314.59;6150647;23;20396;-78
2022/07/11 03:28:09;;;;;;;16.45;11.52;;;;;;;14.38;96.80;102313.31;6151046;23;20006;-78
2022/07/11 03:30:35;;;;;;;19.45;11.70;;;;;;;14.38;96.87;102311.53;6149728;23;20152;-78
2022/07/11 03:33:00;;;;;;;16.73;12.27;;;;;;;14.37;97.27;102315.13;6149843;23;20424;-78
2022/07/11 03:35:40;;;;;;;15.10;12.10;;;;;;;14.41;97.57;102316.66;6149951;23;20009;-78
2022/07/11 03:38:06;;;;;;;17.08;11.57;;;;;;;14.41;97.56;102306.06;6152080;23;20009;-74
2022/07/11 03:40:31;;;;;;;16.08;12.40;;;;;;;14.45;97.69;102311.19;6150643;23;20443;-78
2022/07/11 03:42:56;;;;;;;17.70;12.77;;;;;;;14.44;98.18;102307.69;6151182;23;20001;-79
2022/07/11 03:45:21;;;;;;;17.55;12.70;;;;;;;14.47;97.80;102304.81;6124897;23;20033;-79
2022/07/11 03:47:50;;;;;;;14.85;12.68;;;;;;;14.50;97.38;102315.22;6151641;23;20012;-79
2022/07/11 03:50:18;;;;;;;15.88;12.18;;;;;;;14.47;98.04;102319.88;6150906;23;20052;-78
2022/07/11 03:52:44;;;;;;;19.58;13.13;;;;;;;14.54;97.91;102316.69;6149700;23;20036;-79
2022/07/11 03:55:09;;;;;;;19.33;13.38;;;;;;;14.58;97.55;102317.34;6150212;23;20335;-78
2022/07/11 03:57:35;;;;;;;18.95;12.90;;;;;;;14.57;97.73;102313.00;6148190;23;20158;-78
2022/07/11 04:00:04;;;;;;;17.98;12.30;;;;;;;14.59;98.00;102313.72;6151204;23;20028;-74
2022/07/11 04:02:29;;;;;;;21.58;13.57;;;;;;;14.56;98.31;102309.50;6150233;23;20016;-74
2022/07/11 04:04:54;;;;;;;18.17;12.25;;;;;;;14.63;98.19;102305.47;6149895;23;20096;-74
2022/07/11 04:07:20;;;;;;;17.02;12.30;;;;;;;14.63;98.51;102310.78;6149896;23;20006;-79
2022/07/11 04:09:45;;;;;;;19.40;12.85;;;;;;;14.64;98.88;102316.91;6153200;23;20071;-79
2022/07/11 04:12:11;;;;;;;15.30;11.75;;;;;;;14.68;98.42;102310.47;6152507;23;20028;-79
2022/07/11 04:14:36;;;;;;;18.83;12.43;;;;;;;14.68;98.52;102308.66;6152118;23;20009;-74
2022/07/11 04:17:01;;;;;;;16.20;11.60;;;;;;;14.74;98.29;102312.69;6126769;23;20001;-78
2022/07/11 04:19:27;;;;;;;14.60;11.77;;;;;;;14.76;98.57;102308.13;6125237;23;20005;-78
2022/07/11 04:21:52;;;;;;;17.40;12.55;;;;;;;14.79;98.80;102310.56;6152368;23;20002;-79
2022/07/11 04:24:17;;;;;;;15.48;11.05;;;;;;;14.85;98.41;102307.53;6125180;23;20009;-78
2022/07/11 04:26:42;;;;;;;13.68;11.30;;;;;;;14.90;98.18;102308.06;6151437;23;20068;-79
2022/07/11 04:29:09;;;;;;;18.60;12.10;;;;;;;14.88;98.60;102314.41;6152767;23;20006;-80
2022/07/11 04:31:35;;;;;;;14.23;11.25;;;;;;;14.93;98.54;102310.50;6151886;23;19997;-80
2022/07/11 04:34:00;;;;;;;19.70;12.20;;;;;;;14.99;98.27;102315.38;6151987;23;20013;-80
2022/07/11 04:36:26;;;;;;;17.85;11.80;;;;;;;14.99;97.79;102312.72;6151815;23;20021;-78
2022/07/11 04:38:51;;;;;;;15.05;10.65;;;;;;;15.00;97.32;102311.75;6149905;23;20440;-79
2022/07/11 04:41:20;;;;;;;14.15;10.75;;;;;;;15.04;97.75;102315.03;6152146;23;20495;-75
2022/07/11 04:43:48;;;;;;;15.73;10.82;;;;;;;15.07;97.89;102313.97;6152678;23;20343;-75
2022/07/11 04:46:14;;;;;;;15.27;10.40;;;;;;;15.09;97.77;102317.38;6150603;23;20001;-80
2022/07/11 04:48:39;;;;;;;15.77;10.48;;;;;;;15.14;97.24;102321.38;6125919;23;20013;-75
2022/07/11 04:51:06;;;;;;;16.50;10.57;;;;;;;15.13;97.08;102321.50;6127058;23;20023;-79
2022/07/11 04:53:32;;;;;;;17.13;11.07;;;;;;;15.16;97.45;102329.25;6151652;23;20005;-79
2022/07/11 04:55:58;;;;;;;17.92;11.10;;;;;;;15.14;97.55;102325.84;6152923;23;20336;-75
2022/07/11 04:58:23;;;;;;;14.55;11.30;;;;;;;15.15;97.89;102330.19;6152452;23;20005;-81
2022/07/11 05:00:48;;;;;;;17.20;10.63;;;;;;;15.16;97.94;102329.25;6152364;23;20434;-79
2022/07/11 05:03:14;;;;;;;15.27;10.15;;;;;;;15.22;98.00;102339.44;6151336;23;20016;-81
2022/07/11 05:05:40;;;;;;;13.57;10.13;;;;;;;15.25;98.01;102337.44;6126073;23;20013;-78
2022/07/11 05:08:06;;;;;;;16.75;10.20;;;;;;;15.26;97.44;102340.91;6152047;23;20015;-78
2022/07/11 05:10:33;;;;;;;14.20;10.20;;;;;;;15.25;97.33;102339.22;6126132;23;20511;-74
2022/07/11 05:12:58;;;;;;;14.18;9.93;;;;;;;15.26;97.11;102340.91;6152523;23;20001;-79
2022/07/11 05:15:24;;;;;;;18.38;10.10;;;;;;;15.30;97.35;102348.56;6149826;23;20006;-78
2022/07/11 05:17:49;;;;;;;15.05;10.38;;;;;;;15.26;97.64;102340.91;6151686;23;20044;-78
2022/07/11 05:20:18;;;;;;;16.50;10.02;;;;;;;15.31;97.62;102344.09;6152334;23;20120;-74
2022/07/11 05:22:44;;;;;;;12.07;9.32;;;;;;;15.34;97.54;102343.88;6151526;23;20061;-79
2022/07/11 05:25:09;;;;;;;16.77;9.57;;;;;;;15.34;97.64;102351.84;6152098;23;20083;-79
2022/07/11 05:27:35;;;;;;;15.70;9.80;;;;;;;15.39;97.34;102347.06;6151057;23;20035;-75
2022/07/11 05:30:00;;;;;;;12.02;9.00;;;;;;;15.44;97.21;102344.91;6151500;23;20012;-79
2022/07/11 05:32:26;;;;;;;16.33;9.60;;;;;;;15.49;97.39;102344.59;6151459;23;20027;-79
2022/07/11 05:34:52;;;;;;;17.58;10.02;;;;;;;15.53;97.56;102354.03;6126020;23;20063;-78
2022/07/11 05:37:17;;;;;;;13.80;9.65;;;;;;;15.56;97.51;102353.81;6148820;23;20440;-76
2022/07/11 05:39:42;;;;;;;16.00;10.13;;;;;;;15.62;97.28;102351.63;6151835;23;20032;-73
2022/07/11 05:42:09;;;;;;;13.48;9.02;;;;;;;15.66;97.53;102350.44;6151203;23;20065;-78
2022/07/11 05:44:35;;;;;;;18.30;10.43;;;;;;;15.68;97.48;102347.69;6151077;23;20480;-80
2022/07/11 05:47:02;;;;;;;14.70;9.90;;;;;;;15.70;97.14;102352.88;6153248;23;20001;-79
2022/07/11 05:49:27;;;;;;;12.73;9.55;;;;;;;15.74;97.57;102351.69;6151832;23;20006;-78
2022/07/11 05:51:52;;;;;;;16.83;9.95;;;;;;;15.81;97.13;102355.59;6151163;23;20491;-80
2022/07/11 05:54:19;;;;;;;17.65;10.45;;;;;;;15.87;96.91;102355.16;6150851;23;20012;-79
2022/07/11 05:56:44;;;;;;;14.98;9.85;;;;;;;15.90;97.18;102362.91;6125330;23;19997;-79
2022/07/11 05:59:09;;;;;;;15.13;10.43;;;;;;;15.91;97.25;102360.13;6152068;23;20064;-74
2022/07/11 06:01:37;;;;;;;15.75;10.13;;;;;;;15.96;97.56;102362.44;6125848;23;20379;-79
2022/07/11 06:04:03;;;;;;;13.40;9.07;;;;;;;15.99;96.99;102357.75;6125149;23;20092;-74
2022/07/11 06:06:30;;;;;;;13.80;8.75;;;;;;;16.02;96.75;102356.72;6125500;23;20010;-79
2022/07/11 06:08:55;;;;;;;14.23;8.63;;;;;;;16.02;96.58;102362.03;6151824;23;20026;-75
2022/07/11 06:11:21;;;;;;;12.32;8.38;;;;;;;16.05;96.29;102361.81;6150639;23;20582;-78
2022/07/11 06:13:49;;;;;;;10.30;8.77;;;;;;;16.04;95.91;102360.13;6125518;23;20009;-75
2022/07/11 06:16:18;;;;;;;13.93;8.90;;;;;;;16.07;95.78;102364.34;6152454;23;20008;-79
2022/07/11 06:18:48;;;;;;;11.75;8.43;;;;;;;16.04;96.03;102370.72;6149512;23;20015;-79
2022/07/11 06:21:14;;;;;;;12.15;8.70;;;;;;;16.05;95.74;102377.75;6152489;23;20012;-74
2022/07/11 06:23:42;;;;;;;12.02;8.73;;;;;;;16.09;95.52;102373.91;6150874;23;20005;-78
2022/07/11 06:26:08;;;;;;;13.02;8.98;;;;;;;16.09;95.33;102373.91;6150033;23;20024;-79
2022/07/11 06:28:34;;;;;;;13.57;9.70;;;;;;;16.09;95.22;102371.25;6150671;23;20005;-78
2022/07/11 06:30:59;;;;;;;10.43;8.95;;;;;;;16.14;95.23;102374.41;6151275;23;20080;-74
2022/07/11 06:33:25;;;;;;;12.13;9.15;;;;;;;16.19;94.96;102368.75;6149946;23;20069;-74
2022/07/11 06:35:50;;;;;;;12.32;8.70;;;;;;;16.24;95.14;102372.78;6124986;23;20379;-79
2022/07/11 06:38:19;;;;;;;9.80;8.73;;;;;;;16.25;94.54;102369.16;6148193;23;20033;-74
2022/07/11 06:40:45;;;;;;;12.02;9.15;;;;;;;16.28;94.35;102371.56;6125892;23;20617;-74
2022/07/11 06:43:11;;;;;;;10.88;9.50;;;;;;;16.26;94.20;102375.31;6151545;23;19998;-78
2022/07/11 06:45:38;;;;;;;10.98;9.20;;;;;;;16.32;93.97;102368.69;6150122;23;20009;-79
2022/07/11 06:48:04;;;;;;;12.82;9.50;;;;;;;16.33;93.98;102365.91;6151462;23;20032;-79
2022/07/11 06:50:30;;;;;;;11.88;9.40;;;;;;;16.34;94.02;102369.44;6151291;23;20005;-79
2022/07/11 06:52:56;;;;;;;11.07;9.38;;;;;;;16.41;93.59;102370.66;6151081;23;20503;-78
2022/07/11 06:55:21;;;;;;;12.07;9.52;;;;;;;16.30;93.43;102367.00;6150939;23;20011;-78
2022/07/11 06:57:47;;;;;;;11.75;9.95;;;;;;;16.37;93.36;102366.53;6152287;23;20004;-73
2022/07/11 07:00:12;;;;;;;12.07;9.15;;;;;;;16.41;93.33;102362.69;6151470;23;20021;-74
2022/07/11 07:02:38;;;;;;;12.15;9.93;;;;;;;16.36;93.70;102364.84;6152617;23;20372;-78
2022/07/11 07:05:04;;;;;;;11.70;10.15;;;;;;;16.38;93.75;102362.91;6151340;23;20033;-78
2022/07/11 07:07:30;;;;;;;11.80;9.20;;;;;;;16.30;93.41;102366.16;6150470;23;20495;-78
2022/07/11 07:09:56;;;;;;;11.93;10.05;;;;;;;16.37;93.65;102364.72;6150138;23;20088;-77
2022/07/11 07:12:21;;;;;;;11.15;9.43;;;;;;;16.42;93.24;102359.09;6151572;23;20001;-78
2022/07/11 07:14:47;;;;;;;11.13;9.45;;;;;;;16.50;92.50;102362.03;6150948;23;20001;-74
2022/07/11 07:17:13;;;;;;;13.05;10.20;;;;;;;16.62;92.69;102361.09;6152350;23;20008;-74
2022/07/11 07:19:38;;;;;;;12.35;9.90;;;;;;;16.60;92.20;102360.38;6124372;23;20340;-79
2022/07/11 07:22:05;;;;;;;11.98;9.82;;;;;;;16.72;91.51;102356.81;6145159;23;20024;-78
2022/07/11 07:24:32;;;;;;;13.60;10.02;;;;;;;16.87;90.85;102358.31;6150919;23;20009;-78
2022/07/11 07:26:58;;;;;;;13.65;9.38;;;;;;;16.87;89.71;102358.31;6125456;23;20061;-74
2022/07/11 07:29:25;;;;;;;13.52;9.75;;;;;;;16.99;89.11;102350.34;6149581;23;20040;-78
2022/07/11 07:31:52;;;;;;;11.73;9.68;;;;;;;17.12;89.03;102356.41;6141448;23;20029;-78
2022/07/11 07:34:20;;;;;;;12.45;9.30;;;;;;;17.31;88.39;102351.38;6150361;23;20008;-73
2022/07/11 07:36:46;;;;;;;14.30;9.02;;;;;;;17.37;87.12;102348.22;6150313;23;20009;-78
2022/07/11 07:39:11;;;;;;;13.13;10.10;;;;;;;17.33;85.94;102345.94;6124846;23;20335;-75
2022/07/11 07:41:36;;;;;;;12.63;9.45;;;;;;;17.33;86.25;102351.25;6149005;23;20041;-74
2022/07/11 07:44:03;;;;;;;14.40;9.45;;;;;;;17.47;86.34;102359.81;6150863;23;20001;-74
2022/07/11 07:46:29;;;;;;;12.18;8.68;;;;;;;17.59;85.29;102346.50;6149980;23;20012;-79
2022/07/11 07:48:55;;;;;;;11.90;8.18;;;;;;;17.57;85.55;102359.09;6150163;23;20432;-79
2022/07/11 07:51:39;;;;;;;9.68;7.70;;;;;;;17.66;84.43;102366.38;5057210;28;20396;-75
2022/07/11 07:54:04;;;;;;;8.70;7.80;;;;;;;17.66;83.17;102361.03;5056691;28;20177;-74
2022/07/11 07:56:30;;;;;;;7.93;7.05;;;;;;;17.66;84.09;102358.38;5056994;28;20120;-77
2022/07/11 07:58:56;;;;;;;11.43;8.10;;;;;;;17.75;84.63;102357.69;5055002;28;20032;-75
2022/07/11 08:01:40;;;;;;;8.20;7.40;;;;;;;17.86;83.53;102365.63;5054375;28;20020;-78
2022/07/11 08:04:08;;;;;;;11.05;7.70;;;;;;;18.06;83.75;102372.88;5051264;28;20107;-79
2022/07/11 08:06:35;;;;;;;8.70;7.80;;;;;;;18.26;83.63;102375.72;5057009;28;20036;-79
2022/07/11 08:09:01;;;;;;;9.85;8.07;;;;;;;18.32;82.22;102369.88;5056939;28;20025;-79
2022/07/11 08:11:27;;;;;;;12.23;8.90;;;;;;;18.14;81.02;102374.91;5057154;28;20021;-79
2022/07/11 08:13:52;;;;;;;9.13;8.23;;;;;;;18.19;81.44;102366.53;5058459;28;20036;-79
2022/07/11 08:16:18;;;;;;;9.45;8.38;;;;;;;18.25;82.08;102368.69;5072637;28;20021;-80
2022/07/11 08:18:43;;;;;;;10.10;7.63;;;;;;;18.19;80.44;102367.38;5061847;28;20021;-80
2022/07/11 08:21:09;;;;;;;10.23;7.90;;;;;;;18.19;81.02;102377.19;5059006;28;20049;-79
2022/07/11 08:23:35;;;;;;;8.90;7.32;;;;;;;18.20;81.02;102374.41;5057952;28;20066;-79
2022/07/11 08:26:01;;;;;;;11.60;8.77;;;;;;;18.11;81.16;102370.69;5056630;28;20036;-80
2022/07/11 08:28:26;;;;;;;10.13;7.80;;;;;;;18.06;81.52;102372.88;5063630;28;20025;-80
2022/07/11 08:30:53;;;;;;;8.63;7.75;;;;;;;18.09;81.51;102375.28;5070142;28;20057;-79
2022/07/11 08:33:18;;;;;;;14.20;8.55;;;;;;;18.20;81.50;102377.06;5055973;28;20033;-79
2022/07/11 08:35:43;;;;;;;11.13;8.77;;;;;;;18.30;81.53;102364.69;5058302;28;20031;-80
2022/07/11 08:38:09;;;;;;;10.20;8.15;;;;;;;18.44;81.56;102371.56;5058396;28;20029;-79
2022/07/11 08:40:34;;;;;;;11.50;8.73;;;;;;;18.48;81.13;102372.97;5053670;28;20630;-80
2022/07/11 08:43:02;;;;;;;13.77;8.93;;;;;;;18.50;80.33;102372.84;5056263;28;20032;-79
2022/07/11 08:45:31;;;;;;;10.07;9.13;;;;;;;18.61;80.69;102367.47;5056349;28;20056;-80
2022/07/11 08:47:59;;;;;;;10.40;9.20;;;;;;;18.72;80.46;102365.63;5057755;28;20067;-80
2022/07/11 08:50:26;;;;;;;12.25;9.10;;;;;;;18.56;79.28;102370.53;5056138;28;20049;-76
2022/07/11 08:52:54;;;;;;;12.18;9.10;;;;;;;18.59;79.81;102370.25;5048403;28;20074;-76
2022/07/11 08:55:20;;;;;;;9.43;8.43;;;;;;;18.56;80.50;102373.19;5057115;28;20526;-79
2022/07/11 08:57:46;;;;;;;12.05;9.48;;;;;;;18.58;80.20;102367.72;5057057;28;20032;-80
2022/07/11 09:00:12;;;;;;;12.02;9.65;;;;;;;18.58;79.75;102376.56;5052048;28;20500;-79
2022/07/11 09:02:41;;;;;;;10.85;9.23;;;;;;;18.56;79.19;102375.84;5047794;28;20032;-80
2022/07/11 09:05:07;;;;;;;10.63;9.38;;;;;;;18.62;79.17;102372.69;5043813;28;20596;-76
2022/07/11 09:07:34;;;;;;;11.98;9.77;;;;;;;18.62;79.26;102370.03;5042699;28;20039;-76
2022/07/11 09:10:00;;;;;;;11.75;8.82;;;;;;;18.85;79.32;102359.25;5042547;28;20473;-76
2022/07/11 09:12:25;;;;;;;11.75;9.43;;;;;;;18.94;77.71;102362.00;5039902;28;20033;-79
2022/07/11 09:14:54;;;;;;;13.07;9.98;;;;;;;19.42;76.85;102364.91;5039772;28;20499;-80
2022/07/11 09:17:26;;;;;;;10.95;9.32;;;;;;;19.89;75.85;102367.91;5050443;28;20174;-80
2022/07/11 09:19:51;;;;;;;11.95;8.98;;;;;;;20.31;74.57;102365.88;5042843;28;20028;-81
2022/07/11 09:25:24;;;;;;;11.05;9.20;;;;;;;20.56;71.29;102361.81;5041115;28;20452;-80
2022/07/11 09:28:04;;;;;;;11.07;9.10;;;;;;;20.50;71.06;102351.69;5044135;28;20040;-80
2022/07/11 09:30:43;;;;;;;10.00;8.98;;;;;;;20.69;72.17;102349.97;5044075;28;20123;-79
2022/07/11 09:33:12;;;;;;;10.50;9.38;;;;;;;20.89;71.22;102351.66;5044576;28;20017;-79
2022/07/11 09:35:45;;;;;;;10.30;9.10;;;;;;;20.89;68.53;102351.66;5042200;28;20033;-79
2022/07/11 09:38:12;;;;;;;10.60;8.68;;;;;;;21.34;70.57;102345.63;5050378;28;20029;-79
2022/07/11 09:40:42;;;;;;;9.65;8.63;;;;;;;21.67;68.27;102342.38;5054115;28;20086;-78
2022/07/11 09:43:07;;;;;;;10.52;8.13;;;;;;;21.67;67.17;102339.69;5040167;28;20033;-78
2022/07/11 09:45:34;;;;;;;9.68;8.63;;;;;;;21.51;67.42;102342.16;5041903;28;20540;-79
2022/07/11 09:48:07;;;;;;;10.23;8.63;;;;;;;21.35;68.60;102347.31;5041189;28;20020;-80
2022/07/11 09:50:32;;;;;;;9.20;8.30;;;;;;;21.20;68.81;102350.41;5038841;28;20569;-79
2022/07/11 09:53:08;;;;;;;9.30;7.80;;;;;;;20.95;69.57;102345.72;5031774;28;20156;-79
2022/07/11 09:55:37;;;;;;;10.18;7.40;;;;;;;20.91;70.00;102350.53;5038593;28;20056;-80
2022/07/11 09:58:07;;;;;;;9.45;8.48;;;;;;;20.93;70.56;102347.69;5046710;28;20104;-81
2022/07/11 10:00:35;;;;;;;10.48;8.18;;;;;;;20.82;71.05;102345.19;5046757;28;20611;-78
2022/07/11 10:03:01;;;;;;;10.13;7.28;;;;;;;20.73;69.04;102346.03;5044279;28;20032;-79
2022/07/11 10:05:27;;;;;;;12.32;7.75;;;;;;;20.56;69.52;102344.94;5039432;28;20065;-80
2022/07/11 10:07:52;;;;;;;8.32;7.45;;;;;;;20.40;70.36;102348.16;5044486;28;20029;-80
2022/07/11 10:10:18;;;;;;;10.50;8.82;;;;;;;20.18;71.28;102356.44;5045057;28;20495;-79
2022/07/11 10:12:46;;;;;;;9.60;8.60;;;;;;;20.17;71.89;102354.75;5046649;28;20063;-80
2022/07/11 10:15:14;;;;;;;11.32;8.32;;;;;;;20.32;71.69;102356.00;5042409;28;20477;-80
2022/07/11 10:18:01;;;;;;;10.23;8.38;;;;;;;20.22;72.49;102357.84;5043533;28;20083;-81
2022/07/11 10:20:42;;;;;;;13.05;8.98;;;;;;;20.41;72.02;102349.00;5035420;28;20112;-80
2022/07/11 10:23:42;;;;;;;13.32;9.43;;;;;;;20.41;72.41;102357.03;5037884;28;20108;-79
2022/07/11 10:26:32;;;;;;;14.77;10.45;;;;;;;20.29;72.09;102348.28;5044338;28;20079;-80
2022/07/11 10:29:14;;;;;;;12.23;9.25;;;;;;;20.31;72.13;102354.31;5035061;28;20377;-79
2022/07/11 10:31:40;;;;;;;13.38;9.27;;;;;;;20.27;71.80;102360.94;5055827;28;20508;-79
2022/07/11 10:34:08;;;;;;;11.63;9.27;;;;;;;20.27;72.04;102355.59;5041676;28;20028;-79
2022/07/11 10:36:41;;;;;;;14.32;9.20;;;;;;;20.36;71.75;102362.75;5035395;28;20025;-79
2022/07/11 10:39:26;;;;;;;15.60;10.38;;;;;;;20.51;71.47;102369.44;5045028;28;20021;-79
2022/07/11 10:41:53;;;;;;;13.30;9.07;;;;;;;20.61;71.29;102364.06;5040315;28;20385;-76
2022/07/11 10:44:18;;;;;;;13.55;9.77;;;;;;;20.62;70.50;102358.59;5034027;28;20036;-75
2022/07/11 10:46:44;;;;;;;10.93;9.40;;;;;;;20.71;70.92;102358.72;5039358;28;20032;-80
2022/07/11 10:49:12;;;;;;;11.30;9.15;;;;;;;20.91;70.49;102360.38;5047401;28;20029;-76
2022/07/11 10:51:44;;;;;;;14.52;9.77;;;;;;;20.81;70.99;102360.41;5035148;28;20413;-80
2022/07/11 10:54:28;;;;;;;10.73;9.13;;;;;;;20.87;70.50;102361.66;5040964;28;20040;-79
2022/07/11 10:57:00;;;;;;;10.75;9.18;;;;;;;20.74;69.99;102364.63;5044752;28;20057;-80
2022/07/11 10:59:25;;;;;;;;;;;;;;;20.99;71.06;102363.19;5045433;28;20044;-79
2022/07/11 11:02:12;;;;;;;13.37;8.57;;;;;;;20.84;70.40;102353.94;5046965;28;20373;-80
2022/07/11 11:04:49;;;;;;;10.07;8.27;;;;;;;20.73;70.59;102362.09;5032461;28;20809;-78
2022/07/11 11:07:35;;;;;;;9.18;7.95;;;;;;;20.59;71.23;102363.38;5034039;28;20032;-80
2022/07/11 11:10:04;;;;;;;10.75;7.65;;;;;;;20.33;70.89;102368.41;5053691;28;20017;-79
2022/07/11 11:13:04;;;;;;;7.53;6.28;;;;;;;20.42;71.53;102364.94;5034937;28;20715;-79
2022/07/11 11:15:45;;;;;;;8.48;6.15;;;;;;;20.29;72.76;102367.00;5034974;28;20021;-79
2022/07/11 11:18:23;;;;;;;7.55;5.88;;;;;;;20.07;72.62;102370.78;5039427;28;20415;-76
2022/07/11 11:21:01;;;;;;;6.15;4.68;;;;;;;19.94;73.20;102376.34;5037543;28;20021;-76
2022/07/11 11:23:44;;;;;;;6.00;4.80;;;;;;;19.92;73.49;102378.31;5034001;28;20025;-77